Flight Track Log - Related Links

Times and Time Zones

All times are in EDT time to prevent confusion due to time zone crossing. See the C-GIRL flight status page for this flight to view local times or setup timezone preferences in your user account.

Time Position Orientation Groundspeed Altitude Reporting Facility
EDT Latitude Longitude Course Direction KTS MPH feet Rate Location/Type
Sat 09:58:18 AM 46.7667 -71.3833 270° West 130 150 800  Level Montreal Center
Sat 09:59:18 AM 46.7333 -71.4333 226° Southwest 190 219 3,100 2,150 Climbing Montreal Center
Sat 10:00:18 AM 46.7000 -71.4833 226° Southwest 210 242 5,100 2,250 Climbing Montreal Center
Sat 10:01:18 AM 46.7000 -71.5833 270° West 220 253 7,600 2,400 Climbing Montreal Center
Sat 10:02:18 AM 46.7000 -71.6667 270° West 210 242 9,900 2,100 Climbing Montreal Center
Sat 10:03:00 AM 46.6500 -72.0274 270° West  Level FlightAware
Sat 10:03:18 AM 46.7167 -71.7500 286° West 220 253 11,800  Level Montreal Center
Sat 10:04:18 AM 46.7167 -71.8500 270° West 230 265 13,500 1,600 Climbing Montreal Center
Sat 10:05:18 AM 46.7500 -71.9500 296° West 230 265 15,000 1,250 Climbing Montreal Center
Sat 10:06:18 AM 46.7667 -72.0500 284° West 270 311 16,000 1,300 Climbing Montreal Center
Sat 10:07:18 AM 46.7833 -72.1167 290° West 240 276 17,600 1,700 Climbing Montreal Center
Sat 10:08:18 AM 46.7833 -72.2500 270° West 240 276 19,400 1,450 Climbing Montreal Center
Sat 10:09:18 AM 46.7667 -72.3167 250° West 240 276 20,500 1,250 Climbing Montreal Center
Sat 10:10:18 AM 46.7833 -72.4333 282° West 240 276 21,900 1,250 Climbing Montreal Center
Sat 10:11:18 AM 46.7833 -72.5333 270° West 250 288 23,000 1,000 Climbing Montreal Center
Sat 10:12:18 AM 46.7833 -72.6333 270° West 260 299 23,900 950 Climbing Montreal Center
Sat 10:13:18 AM 46.7833 -72.7333 270° West 260 299 24,900 950 Climbing Montreal Center
Sat 10:14:18 AM 46.7833 -72.8500 270° West 260 299 25,800 850 Climbing Montreal Center
Sat 10:15:18 AM 46.7667 -72.9500 256° West 260 299 26,600 800 Climbing Montreal Center
Sat 10:16:18 AM 46.8000 -73.0500 296° West 270 311 27,400 850 Climbing Montreal Center
Sat 10:17:18 AM 46.8167 -73.1667 282° West 260 299 28,300 900 Climbing Montreal Center
Sat 10:18:18 AM 46.8333 -73.2667 284° West 260 299 29,200 850 Climbing Montreal Center
Sat 10:19:18 AM 46.8500 -73.3667 284° West 250 288 30,000 800 Climbing Montreal Center
Sat 10:20:18 AM 46.8667 -73.4667 284° West 250 288 30,800 800 Climbing Montreal Center
Sat 10:21:18 AM 46.8833 -73.5333 290° West 240 276 31,600 750 Climbing Montreal Center
Sat 10:22:18 AM 46.9167 -73.6333 296° West 230 265 32,300 800 Climbing Montreal Center
Sat 10:23:18 AM 46.9333 -73.7333 284° West 230 265 33,200 900 Climbing Montreal Center
Sat 10:24:18 AM 46.9500 -73.8000 290° West 230 265 34,100 900 Climbing Montreal Center
Sat 10:25:18 AM 46.9667 -73.9000 284° West 220 253 35,000 850 Climbing Montreal Center
Sat 10:26:18 AM 46.9833 -74.0000 284° West 220 253 35,800 850 Climbing Montreal Center
Sat 10:27:18 AM 47.0000 -74.0667 290° West 220 253 36,700 850 Climbing Montreal Center
Sat 10:28:18 AM 47.0167 -74.1667 284° West 220 253 37,500 650 Climbing Montreal Center
Sat 10:29:18 AM 47.0333 -74.2667 284° West 220 253 38,000 250 Climbing Montreal Center
Sat 10:30:18 AM 47.0500 -74.3333 290° West 240 276 38,000  Level Montreal Center
Sat 10:31:18 AM 47.0667 -74.4667 280° West 260 299 38,000  Level Montreal Center
Sat 10:32:18 AM 47.1000 -74.5667 296° West 260 299 38,000 600 Level Montreal Center
Sat 10:33:18 AM 47.1167 -74.6667 284° West 260 299 39,200 800 Climbing Montreal Center
Sat 10:34:18 AM 47.1500 -74.7500 300° West 240 276 39,600 300 Climbing Montreal Center
Sat 10:35:18 AM 47.1500 -74.8500 270° West 240 276 39,800 200 Climbing Montreal Center
Sat 10:36:18 AM 47.1833 -74.9500 296° West 250 288 40,000 100 Climbing Montreal Center
Sat 10:37:18 AM 47.2000 -75.0500 284° West 250 288 40,000  Level Montreal Center
Sat 10:38:18 AM 47.2167 -75.1500 284° West 260 299 40,000  Level Montreal Center
Sat 10:39:18 AM 47.2333 -75.2500 284° West 270 311 40,000  Level Montreal Center
Sat 10:40:18 AM 47.2500 -75.3667 282° West 270 311 40,000  Level Montreal Center
Sat 10:41:18 AM 47.2667 -75.4667 284° West 280 322 40,000  Level Montreal Center
Sat 10:42:18 AM 47.3000 -75.6000 290° West 280 322 40,000  Level Montreal Center
Sat 10:43:18 AM 47.3167 -75.7000 284° West 280 322 40,000  Level Montreal Center
Sat 10:44:18 AM 47.3333 -75.8167 282° West 280 322 40,000  Level Montreal Center
Sat 10:45:18 AM 47.3500 -75.9500 281° West 280 322 40,000  Level Montreal Center
Sat 10:46:18 AM 47.3667 -76.0333 286° West 280 322 40,000  Level Montreal Center
Sat 10:47:18 AM 47.4000 -76.1667 290° West 280 322 40,000  Level Montreal Center
Sat 10:48:18 AM 47.4167 -76.2667 284° West 270 311 40,000  Level Montreal Center
Sat 10:49:18 AM 47.4333 -76.3667 284° West 270 311 40,000  Level Montreal Center
Sat 10:50:18 AM 47.4500 -76.4667 284° West 270 311 40,000  Level Montreal Center
Sat 10:51:18 AM 47.4667 -76.5833 282° West 270 311 40,000  Level Montreal Center
Sat 10:52:18 AM 47.4833 -76.6833 284° West 270 311 40,000  Level Montreal Center
Sat 10:53:18 AM 47.5167 -76.8167 290° West 270 311 40,000  Level Montreal Center
Sat 10:54:18 AM 47.5333 -76.9167 284° West 270 311 40,000  Level Montreal Center
Sat 10:55:18 AM 47.5500 -77.0167 284° West 270 311 40,000  Level Montreal Center
Sat 10:56:18 AM 47.5667 -77.1167 284° West 270 311 40,000  Level Montreal Center
Sat 10:57:18 AM 47.5833 -77.2333 282° West 270 311 40,000  Level Montreal Center
Sat 10:58:18 AM 47.6000 -77.3333 284° West 270 311 40,000  Level Montreal Center
Sat 10:59:18 AM 47.6167 -77.4333 284° West 270 311 40,000  Level Montreal Center
Sat 11:00:18 AM 47.6500 -77.5667 290° West 270 311 40,000  Level Montreal Center
Sat 11:01:18 AM 47.6667 -77.6667 284° West 270 311 40,000  Level Montreal Center
Sat 11:02:18 AM 47.6667 -77.7833 270° West 270 311 40,000  Level Montreal Center
Sat 11:03:18 AM 47.6833 -77.8833 284° West 270 311 40,000  Level Montreal Center
Sat 11:04:18 AM 47.7000 -77.9833 284° West 270 311 40,000  Level Montreal Center
Sat 11:05:18 AM 47.7167 -78.1167 281° West 270 311 40,000  Level Montreal Center
Sat 11:06:18 AM 47.7500 -78.2167 296° West 270 311 40,000  Level Montreal Center
Sat 11:07:18 AM 47.7667 -78.3167 284° West 270 311 40,000  Level Montreal Center
Sat 11:08:18 AM 47.7833 -78.4167 284° West 270 311 40,000  Level Montreal Center
Sat 11:09:18 AM 47.8000 -78.5500 281° West 270 311 40,000  Level Montreal Center
Sat 11:10:18 AM 47.8167 -78.6500 284° West 280 322 40,000  Level Montreal Center
Sat 11:11:18 AM 47.8333 -78.7667 282° West 270 311 40,000  Level Montreal Center
Sat 11:12:18 AM 47.8500 -78.8667 284° West 270 311 40,000  Level Montreal Center
Sat 11:13:18 AM 47.8667 -79.0000 281° West 280 322 40,000  Level Montreal Center
Sat 11:14:18 AM 47.8833 -79.1000 284° West 270 311 40,000  Level Montreal Center
Sat 11:15:18 AM 47.9000 -79.2167 282° West 280 322 40,000 -200 Level Montreal Center
Sat 11:16:18 AM 47.9167 -79.3333 282° West 280 322 39,600 -450 Descending Montreal Center
Sat 11:17:18 AM 47.9333 -79.4500 282° West 290 334 39,100 -500 Descending Montreal Center
Sat 11:18:18 AM 47.9500 -79.5833 281° West 300 345 38,600 -500 Descending Montreal Center
Sat 11:19:18 AM 47.9667 -79.7000 282° West 310 357 38,100 -300 Descending Montreal Center
Sat 11:20:18 AM 48.0000 -79.8333 291° West 310 357 38,000 -50 Descending Montreal Center
Sat 11:21:18 AM 48.0000 -79.9333 270° West 300 345 38,000  Level Montreal Center
Sat 11:22:18 AM 48.0167 -80.0667 281° West 290 334 38,000  Level Montreal Center
Sat 11:23:18 AM 48.0500 -80.1833 293° West 290 334 38,000  Level Montreal Center
Sat 11:24:18 AM 48.0667 -80.2833 284° West 280 322 38,000  Level Montreal Center
Sat 11:25:25 AM 48.0833 -80.3833 284° West 280 322 38,000  Level Toronto Center
Sat 11:26:25 AM 48.1000 -80.5000 282° West 290 334 38,000  Level Toronto Center
Sat 11:27:25 AM 48.1167 -80.6333 281° West 280 322 38,000  Level Toronto Center
Sat 11:28:25 AM 48.1333 -80.7333 284° West 290 334 38,000  Level Toronto Center
Sat 11:29:25 AM 48.1500 -80.8500 282° West 290 334 38,000  Level Toronto Center
Sat 11:30:25 AM 48.1500 -80.9833 270° West 290 334 38,000  Level Toronto Center
Sat 11:31:25 AM 48.1667 -81.0833 284° West 290 334 38,000  Level Toronto Center
Sat 11:32:24 AM 48.1833 -81.2000 282° West 290 334 38,000  Level Toronto Center
Sat 11:33:24 AM 48.2000 -81.3333 281° West 290 334 38,000  Level Toronto Center
Sat 11:34:24 AM 48.2167 -81.4500 282° West 290 334 38,000  Level Toronto Center
Sat 11:35:24 AM 48.2333 -81.5500 284° West 290 334 38,000  Level Toronto Center
Sat 11:36:24 AM 48.2500 -81.6833 281° West 290 334 38,000  Level Toronto Center
Sat 11:37:24 AM 48.2667 -81.8000 282° West 290 334 38,000  Level Toronto Center
Sat 11:38:24 AM 48.2833 -81.9167 282° West 290 334 38,000  Level Toronto Center
Sat 11:39:24 AM 48.2833 -82.0333 270° West 290 334 38,000  Level Toronto Center
Sat 11:40:24 AM 48.3000 -82.1667 281° West 290 334 38,000  Level Toronto Center
Sat 11:41:24 AM 48.3167 -82.2833 282° West 290 334 38,000  Level Toronto Center
Sat 11:42:24 AM 48.3333 -82.3833 284° West 290 334 38,000  Level Toronto Center
Sat 11:43:25 AM 48.3500 -82.5167 281° West 290 334 38,000  Level Toronto Center
Sat 11:44:25 AM 48.3667 -82.6333 282° West 290 334 38,000  Level Toronto Center
Sat 11:45:25 AM 48.3667 -82.7333 270° West 290 334 38,000  Level Toronto Center
Sat 11:46:25 AM 48.3833 -82.8667 281° West 290 334 38,000  Level Toronto Center
Sat 11:47:25 AM 48.4000 -83.0000 281° West 290 334 38,000  Level Toronto Center
Sat 11:48:25 AM 48.4167 -83.1167 282° West 290 334 38,000  Level Toronto Center
Sat 11:49:18 AM 48.4333 -83.2667 280° West 290 334 38,000  Level Montreal Center
Sat 11:50:18 AM 48.4333 -83.3667 270° West 290 334 38,000  Level Montreal Center
Sat 11:51:18 AM 48.4667 -83.5000 291° West 290 334 38,000  Level Montreal Center
Sat 11:52:18 AM 48.4667 -83.6333 270° West 290 334 38,000  Level Montreal Center
Sat 11:53:18 AM 48.4833 -83.7500 282° West 290 334 38,000  Level Montreal Center
Sat 11:54:18 AM 48.4833 -83.8667 270° West 290 334 38,000  Level Montreal Center
Sat 11:55:18 AM 48.5167 -84.0000 291° West 290 334 38,000  Level Montreal Center
Sat 11:56:18 AM 48.5167 -84.1167 270° West 300 345 38,000  Level Montreal Center
Sat 11:57:24 AM 48.5333 -84.2167 284° West 300 345 38,000  Level Toronto Center
Sat 11:58:24 AM 48.5333 -84.3333 270° West 300 345 38,000  Level Toronto Center
Sat 11:59:24 AM 48.5667 -84.4667 291° West 300 345 38,000  Level Toronto Center
Sat 12:00:24 PM 48.5833 -84.6000 281° West 300 345 38,000  Level Toronto Center
Sat 12:01:25 PM 48.5833 -84.7167 270° West 300 345 38,000  Level Toronto Center
Sat 12:02:24 PM 48.6000 -84.8167 284° West 300 345 38,000  Level Toronto Center
Sat 12:03:24 PM 48.6167 -84.9667 280° West 300 345 38,000  Level Toronto Center
Sat 12:04:24 PM 48.6167 -85.0833 270° West 300 345 38,000  Level Toronto Center
Sat 12:05:24 PM 48.6333 -85.2000 282° West 300 345 38,000  Level Toronto Center
Sat 12:06:24 PM 48.6500 -85.3333 281° West 300 345 38,000  Level Toronto Center
Sat 12:07:24 PM 48.6500 -85.4500 270° West 300 345 38,000  Level Toronto Center
Sat 12:08:24 PM 48.6667 -85.5833 281° West 300 345 38,000  Level Toronto Center
Sat 12:09:24 PM 48.6833 -85.6833 284° West 300 345 38,000  Level Toronto Center
Sat 12:10:24 PM 48.6833 -85.8333 270° West 300 345 38,000  Level Toronto Center
Sat 12:11:24 PM 48.7000 -85.9500 282° West 300 345 38,000  Level Toronto Center
Sat 12:12:24 PM 48.7000 -86.1000 270° West 300 345 38,000  Level Toronto Center
Sat 12:13:24 PM 48.7167 -86.2000 284° West 300 345 38,000  Level Toronto Center
Sat 12:14:24 PM 48.7333 -86.3333 281° West 300 345 38,000  Level Toronto Center
Sat 12:15:25 PM 48.7667 -86.4500 293° West 300 345 38,000  Level Toronto Center
Sat 12:16:24 PM 48.8000 -86.5667 293° West 300 345 38,000  Level Toronto Center
Sat 12:17:24 PM 48.8167 -86.7000 281° West 310 357 38,000  Level Toronto Center
Sat 12:18:24 PM 48.8667 -86.8000 307° West 300 345 38,000  Level Toronto Center
Sat 12:19:24 PM 48.9000 -86.9333 291° West 310 357 38,000  Level Toronto Center
Sat 12:20:25 PM 48.9167 -87.0333 284° West 310 357 38,000  Level Toronto Center
Sat 12:21:24 PM 48.9667 -87.1667 300° West 310 357 38,000  Level Toronto Center
Sat 12:22:24 PM 48.9833 -87.2833 282° West 310 357 38,000  Level Toronto Center
Sat 12:23:24 PM 49.0167 -87.4000 294° West 310 357 38,000  Level Toronto Center
Sat 12:24:24 PM 49.0500 -87.5167 294° West 310 357 38,000  Level Toronto Center
Sat 12:25:24 PM 49.0833 -87.6500 291° West 310 357 38,000  Level Toronto Center
Sat 12:26:24 PM 49.1000 -87.7833 281° West 310 357 38,000  Level Toronto Center
Sat 12:27:24 PM 49.1333 -87.8833 297° West 310 357 38,000  Level Toronto Center
Sat 12:28:24 PM 49.1500 -88.0167 281° West 310 357 38,000  Level Toronto Center
Sat 12:29:24 PM 49.1833 -88.1500 291° West 320 368 38,000  Level Toronto Center
Sat 12:30:35 PM 49.2000 -88.2500 284° West 310 357 38,000  Level Winnipeg Center
Sat 12:31:35 PM 49.2333 -88.3667 294° West 310 357 38,000  Level Winnipeg Center
Sat 12:32:35 PM 49.2500 -88.5000 281° West 310 357 38,000  Level Winnipeg Center
Sat 12:33:35 PM 49.2833 -88.6167 294° West 310 357 38,000  Level Winnipeg Center
Sat 12:34:35 PM 49.3167 -88.7500 291° West 310 357 38,000  Level Winnipeg Center
Sat 12:35:35 PM 49.3333 -88.8667 282° West 310 357 38,000  Level Winnipeg Center
Sat 12:36:35 PM 49.3667 -89.0000 291° West 310 357 38,000 -200 Level Winnipeg Center
Sat 12:37:35 PM 49.3833 -89.1167 282° West 310 357 37,600 -1,000 Descending Winnipeg Center
Sat 12:38:35 PM 49.4000 -89.2500 281° West 300 345 36,000 -1,600 Descending Winnipeg Center
Sat 12:39:35 PM 49.4167 -89.3667 282° West 310 357 34,400 -1,650 Descending Winnipeg Center
Sat 12:40:35 PM 49.4500 -89.5000 291° West 320 368 32,700 -1,800 Descending Winnipeg Center
Sat 12:41:35 PM 49.4667 -89.6500 280° West 340 391 30,800 -1,800 Descending Winnipeg Center
Sat 12:42:35 PM 49.5000 -89.8000 289° West 340 391 29,100 -1,850 Descending Winnipeg Center
Sat 12:43:35 PM 49.5167 -89.9167 282° West 350 403 27,100 -1,850 Descending Winnipeg Center
Sat 12:44:35 PM 49.5500 -90.0833 287° West 340 391 25,400 -1,700 Descending Winnipeg Center
Sat 12:45:35 PM 49.5833 -90.2000 294° West 340 391 23,700 -1,800 Descending Winnipeg Center
Sat 12:46:35 PM 49.6000 -90.3500 280° West 330 380 21,800 -1,800 Descending Winnipeg Center
Sat 12:47:35 PM 49.6333 -90.4833 291° West 320 368 20,100 -1,600 Descending Winnipeg Center
Sat 12:48:35 PM 49.6500 -90.6000 282° West 310 357 18,600 -1,600 Descending Winnipeg Center
Sat 12:49:35 PM 49.6667 -90.7333 281° West 300 345 16,900 -1,550 Descending Winnipeg Center
Sat 12:50:35 PM 49.7000 -90.8500 294° West 300 345 15,500 -1,500 Descending Winnipeg Center
Sat 12:51:35 PM 49.7167 -90.9833 281° West 300 345 13,900 -1,550 Descending Winnipeg Center
Sat 12:52:35 PM 49.7500 -91.0833 297° West 290 334 12,400 -1,550 Descending Winnipeg Center
Sat 12:53:35 PM 49.7667 -91.2167 281° West 290 334 10,800 -1,500 Descending Winnipeg Center
Sat 12:54:35 PM 49.7833 -91.3333 283° West 280 322 9,400 -1,450 Descending Winnipeg Center
Sat 12:55:35 PM 49.8000 -91.4500 283° West 270 311 7,900 -1,400 Descending Winnipeg Center
Sat 12:56:35 PM 49.8167 -91.5500 285° West 270 311 6,600 -1,250 Descending Winnipeg Center
Sat 12:57:35 PM 49.8333 -91.6500 285° West 240 276 5,400 -1,300 Descending Winnipeg Center
Sat 12:58:35 PM 49.8667 -91.7500 297° West 220 253 4,000 -1,200 Descending Winnipeg Center
Sat 12:59:35 PM 49.8667 -91.8167 270° West 220 253 3,000 -550 Descending Winnipeg Center
Sat 01:00:35 PM 49.9167 -91.8500 337° Northwest 200 230 2,900 -150 Descending Winnipeg Center
Sat 01:01:35 PM 49.9667 -91.8667 348° North 200 230 2,700 -150 Descending Winnipeg Center
Sat 01:02:35 PM 50.0333 -91.8500 North 190 219 2,600 -500 Descending Winnipeg Center
Sat 01:03:35 PM 50.0667 -91.8500 360° North 140 161 1,700 -900 Descending Winnipeg Center

Login

Don't have an account? Register now (free) for customized features, flight alerts, and more!